sensor_id;sensor_type;location;lat;lon;timestamp;temperature;humidity
8537;DHT22;4306;50.210;10.628;2023-04-02T00:05:29;8.70;99.90
8537;DHT22;4306;50.210;10.628;2023-04-02T00:08:00;8.70;99.90
8537;DHT22;4306;50.210;10.628;2023-04-02T00:10:29;8.60;99.90
8537;DHT22;4306;50.210;10.628;2023-04-02T00:13:02;8.70;99.90
8537;DHT22;4306;50.210;10.628;2023-04-02T00:15:29;8.60;99.90
8537;DHT22;4306;50.210;10.628;2023-04-02T00:17:58;8.70;99.90
8537;DHT22;4306;50.210;10.628;2023-04-02T00:20:27;8.60;99.90
8537;DHT22;4306;50.210;10.628;2023-04-02T00:22:55;8.70;99.90
8537;DHT22;4306;50.210;10.628;2023-04-02T00:25:25;8.70;99.90
8537;DHT22;4306;50.210;10.628;2023-04-02T00:27:53;8.70;99.90
8537;DHT22;4306;50.210;10.628;2023-04-02T00:30:20;8.70;99.90
8537;DHT22;4306;50.210;10.628;2023-04-02T00:32:47;8.70;99.90
8537;DHT22;4306;50.210;10.628;2023-04-02T00:35:19;8.70;99.90
8537;DHT22;4306;50.210;10.628;2023-04-02T00:37:48;8.70;99.90
8537;DHT22;4306;50.210;10.628;2023-04-02T00:40:19;8.70;99.90
8537;DHT22;4306;50.210;10.628;2023-04-02T00:42:48;8.70;99.90
8537;DHT22;4306;50.210;10.628;2023-04-02T00:45:21;8.70;99.90
8537;DHT22;4306;50.210;10.628;2023-04-02T00:47:48;8.70;99.90
8537;DHT22;4306;50.210;10.628;2023-04-02T00:50:22;8.70;99.90
8537;DHT22;4306;50.210;10.628;2023-04-02T00:52:52;8.70;99.90
8537;DHT22;4306;50.210;10.628;2023-04-02T00:55:21;8.70;99.90
8537;DHT22;4306;50.210;10.628;2023-04-02T00:57:50;8.80;99.90
8537;DHT22;4306;50.210;10.628;2023-04-02T01:00:23;8.70;99.90
8537;DHT22;4306;50.210;10.628;2023-04-02T01:06:04;8.70;99.90
8537;DHT22;4306;50.210;10.628;2023-04-02T01:08:47;8.70;99.90
8537;DHT22;4306;50.210;10.628;2023-04-02T01:11:35;8.70;99.90
8537;DHT22;4306;50.210;10.628;2023-04-02T01:14:10;8.70;99.90
8537;DHT22;4306;50.210;10.628;2023-04-02T01:16:44;8.70;99.90
8537;DHT22;4306;50.210;10.628;2023-04-02T01:19:36;8.70;99.90
8537;DHT22;4306;50.210;10.628;2023-04-02T01:22:15;8.70;99.90
8537;DHT22;4306;50.210;10.628;2023-04-02T01:24:47;8.60;99.90
8537;DHT22;4306;50.210;10.628;2023-04-02T01:27:18;8.70;99.90
8537;DHT22;4306;50.210;10.628;2023-04-02T01:29:50;8.70;99.90
8537;DHT22;4306;50.210;10.628;2023-04-02T01:32:21;8.70;99.90
8537;DHT22;4306;50.210;10.628;2023-04-02T01:34:49;8.70;99.90
8537;DHT22;4306;50.210;10.628;2023-04-02T01:37:25;8.70;99.90
8537;DHT22;4306;50.210;10.628;2023-04-02T01:40:05;8.70;99.90
8537;DHT22;4306;50.210;10.628;2023-04-02T01:42:40;8.70;99.90
8537;DHT22;4306;50.210;10.628;2023-04-02T01:45:10;8.70;99.90
8537;DHT22;4306;50.210;10.628;2023-04-02T01:47:39;8.70;99.90
8537;DHT22;4306;50.210;10.628;2023-04-02T01:50:19;8.70;99.90
8537;DHT22;4306;50.210;10.628;2023-04-02T01:52:49;8.70;99.90
8537;DHT22;4306;50.210;10.628;2023-04-02T01:55:19;8.70;99.90
8537;DHT22;4306;50.210;10.628;2023-04-02T01:57:48;8.70;99.90
8537;DHT22;4306;50.210;10.628;2023-04-02T02:00:18;8.80;99.90
8537;DHT22;4306;50.210;10.628;2023-04-02T02:02:48;8.70;99.90
8537;DHT22;4306;50.210;10.628;2023-04-02T02:05:18;8.70;99.90
8537;DHT22;4306;50.210;10.628;2023-04-02T02:07:47;8.70;99.90
8537;DHT22;4306;50.210;10.628;2023-04-02T02:10:18;8.70;99.90
8537;DHT22;4306;50.210;10.628;2023-04-02T02:12:47;8.70;99.90
8537;DHT22;4306;50.210;10.628;2023-04-02T02:15:15;8.60;99.90
8537;DHT22;4306;50.210;10.628;2023-04-02T02:17:44;8.60;99.90
8537;DHT22;4306;50.210;10.628;2023-04-02T02:20:12;8.60;99.90
8537;DHT22;4306;50.210;10.628;2023-04-02T02:22:43;8.60;99.90
8537;DHT22;4306;50.210;10.628;2023-04-02T02:25:13;8.70;99.90
8537;DHT22;4306;50.210;10.628;2023-04-02T02:27:52;8.70;99.90
8537;DHT22;4306;50.210;10.628;2023-04-02T02:30:25;8.70;99.90
8537;DHT22;4306;50.210;10.628;2023-04-02T02:32:58;8.70;99.90
8537;DHT22;4306;50.210;10.628;2023-04-02T02:35:28;8.70;99.90
8537;DHT22;4306;50.210;10.628;2023-04-02T02:38:05;8.70;99.90
8537;DHT22;4306;50.210;10.628;2023-04-02T02:40:39;8.70;99.90
8537;DHT22;4306;50.210;10.628;2023-04-02T02:43:09;8.80;99.90
8537;DHT22;4306;50.210;10.628;2023-04-02T02:45:38;8.70;99.90
8537;DHT22;4306;50.210;10.628;2023-04-02T02:48:11;8.60;99.90
8537;DHT22;4306;50.210;10.628;2023-04-02T02:50:39;8.50;99.90
8537;DHT22;4306;50.210;10.628;2023-04-02T02:53:15;8.60;99.90
8537;DHT22;4306;50.210;10.628;2023-04-02T02:55:42;8.60;99.90
8537;DHT22;4306;50.210;10.628;2023-04-02T02:58:13;8.70;99.90
8537;DHT22;4306;50.210;10.628;2023-04-02T03:00:41;8.70;99.90
8537;DHT22;4306;50.210;10.628;2023-04-02T03:03:13;8.70;99.90
8537;DHT22;4306;50.210;10.628;2023-04-02T03:05:41;8.70;99.90
8537;DHT22;4306;50.210;10.628;2023-04-02T03:08:13;8.80;99.90
8537;DHT22;4306;50.210;10.628;2023-04-02T03:10:51;8.80;99.90
8537;DHT22;4306;50.210;10.628;2023-04-02T03:13:22;8.80;99.90
8537;DHT22;4306;50.210;10.628;2023-04-02T03:15:57;8.80;99.90
8537;DHT22;4306;50.210;10.628;2023-04-02T03:18:33;8.80;99.90
8537;DHT22;4306;50.210;10.628;2023-04-02T03:21:05;8.80;99.90
8537;DHT22;4306;50.210;10.628;2023-04-02T03:23:40;8.80;99.90
8537;DHT22;4306;50.210;10.628;2023-04-02T03:26:12;8.80;99.90
8537;DHT22;4306;50.210;10.628;2023-04-02T03:28:45;8.80;99.90
8537;DHT22;4306;50.210;10.628;2023-04-02T03:31:16;8.80;99.90
8537;DHT22;4306;50.210;10.628;2023-04-02T03:33:50;8.80;99.90
8537;DHT22;4306;50.210;10.628;2023-04-02T03:36:22;8.80;99.90
8537;DHT22;4306;50.210;10.628;2023-04-02T03:39:00;8.80;99.90
8537;DHT22;4306;50.210;10.628;2023-04-02T03:41:33;8.80;99.90
8537;DHT22;4306;50.210;10.628;2023-04-02T03:44:05;8.80;99.90
8537;DHT22;4306;50.210;10.628;2023-04-02T03:46:43;8.70;99.90
8537;DHT22;4306;50.210;10.628;2023-04-02T03:49:17;8.70;99.90
8537;DHT22;4306;50.210;10.628;2023-04-02T03:51:49;8.60;99.90
8537;DHT22;4306;50.210;10.628;2023-04-02T03:54:18;8.60;99.90
8537;DHT22;4306;50.210;10.628;2023-04-02T03:56:45;8.30;99.90
8537;DHT22;4306;50.210;10.628;2023-04-02T03:59:17;8.20;99.90
8537;DHT22;4306;50.210;10.628;2023-04-02T04:01:51;7.70;99.90
8537;DHT22;4306;50.210;10.628;2023-04-02T04:04:21;7.60;99.90
8537;DHT22;4306;50.210;10.628;2023-04-02T04:06:50;7.20;99.90
8537;DHT22;4306;50.210;10.628;2023-04-02T04:09:19;7.20;99.90
8537;DHT22;4306;50.210;10.628;2023-04-02T04:11:51;7.10;99.90
8537;DHT22;4306;50.210;10.628;2023-04-02T04:14:27;6.90;99.90
8537;DHT22;4306;50.210;10.628;2023-04-02T04:17:00;6.80;99.90
8537;DHT22;4306;50.210;10.628;2023-04-02T04:19:37;6.80;99.90
8537;DHT22;4306;50.210;10.628;2023-04-02T04:22:14;6.70;99.90
8537;DHT22;4306;50.210;10.628;2023-04-02T04:24:42;6.60;99.90
8537;DHT22;4306;50.210;10.628;2023-04-02T04:27:19;6.60;99.90
8537;DHT22;4306;50.210;10.628;2023-04-02T04:29:52;6.40;99.90
8537;DHT22;4306;50.210;10.628;2023-04-02T04:32:25;6.40;99.90
8537;DHT22;4306;50.210;10.628;2023-04-02T04:35:02;6.20;99.90
8537;DHT22;4306;50.210;10.628;2023-04-02T04:37:33;6.20;99.90
8537;DHT22;4306;50.210;10.628;2023-04-02T04:40:08;6.10;99.90
8537;DHT22;4306;50.210;10.628;2023-04-02T04:42:38;6.10;99.90
8537;DHT22;4306;50.210;10.628;2023-04-02T04:45:14;6.20;99.90
8537;DHT22;4306;50.210;10.628;2023-04-02T04:47:48;6.30;99.90
8537;DHT22;4306;50.210;10.628;2023-04-02T04:50:26;6.30;99.90
8537;DHT22;4306;50.210;10.628;2023-04-02T04:52:54;6.30;99.90
8537;DHT22;4306;50.210;10.628;2023-04-02T04:55:26;6.40;99.90
8537;DHT22;4306;50.210;10.628;2023-04-02T04:57:58;6.40;99.90
8537;DHT22;4306;50.210;10.628;2023-04-02T05:00:32;6.40;99.90
8537;DHT22;4306;50.210;10.628;2023-04-02T05:03:07;6.20;99.90
8537;DHT22;4306;50.210;10.628;2023-04-02T05:05:43;6.20;99.90
8537;DHT22;4306;50.210;10.628;2023-04-02T05:08:13;6.20;99.90
8537;DHT22;4306;50.210;10.628;2023-04-02T05:10:44;6.10;99.90
8537;DHT22;4306;50.210;10.628;2023-04-02T05:13:17;6.10;99.90
8537;DHT22;4306;50.210;10.628;2023-04-02T05:15:51;6.10;99.90
8537;DHT22;4306;50.210;10.628;2023-04-02T05:18:24;6.20;99.90
8537;DHT22;4306;50.210;10.628;2023-04-02T05:20:58;6.10;99.90
8537;DHT22;4306;50.210;10.628;2023-04-02T05:23:30;6.10;99.90
8537;DHT22;4306;50.210;10.628;2023-04-02T05:26:04;5.80;99.90
8537;DHT22;4306;50.210;10.628;2023-04-02T05:28:37;5.90;99.90
8537;DHT22;4306;50.210;10.628;2023-04-02T05:31:07;5.90;99.90
8537;DHT22;4306;50.210;10.628;2023-04-02T05:33:38;5.80;99.90
8537;DHT22;4306;50.210;10.628;2023-04-02T05:36:09;5.80;99.90
8537;DHT22;4306;50.210;10.628;2023-04-02T05:38:39;5.80;99.90
8537;DHT22;4306;50.210;10.628;2023-04-02T05:41:16;5.70;99.90
8537;DHT22;4306;50.210;10.628;2023-04-02T05:43:48;5.80;99.90
8537;DHT22;4306;50.210;10.628;2023-04-02T05:46:17;5.80;99.90
8537;DHT22;4306;50.210;10.628;2023-04-02T05:48:48;5.90;99.90
8537;DHT22;4306;50.210;10.628;2023-04-02T05:51:21;5.90;99.90
8537;DHT22;4306;50.210;10.628;2023-04-02T05:53:53;5.90;99.90
8537;DHT22;4306;50.210;10.628;2023-04-02T05:56:24;5.80;99.90
8537;DHT22;4306;50.210;10.628;2023-04-02T05:58:55;5.80;99.90
8537;DHT22;4306;50.210;10.628;2023-04-02T06:01:30;5.70;99.90
8537;DHT22;4306;50.210;10.628;2023-04-02T06:04:03;5.60;99.90
8537;DHT22;4306;50.210;10.628;2023-04-02T06:06:51;5.60;99.90
8537;DHT22;4306;50.210;10.628;2023-04-02T06:09:27;5.70;99.90
8537;DHT22;4306;50.210;10.628;2023-04-02T06:12:01;5.90;99.90
8537;DHT22;4306;50.210;10.628;2023-04-02T06:14:30;5.70;99.90
8537;DHT22;4306;50.210;10.628;2023-04-02T06:16:57;5.80;99.90
8537;DHT22;4306;50.210;10.628;2023-04-02T06:19:28;5.90;99.90
8537;DHT22;4306;50.210;10.628;2023-04-02T06:22:06;5.80;99.90
8537;DHT22;4306;50.210;10.628;2023-04-02T06:24:37;5.60;99.90
8537;DHT22;4306;50.210;10.628;2023-04-02T06:27:06;5.50;99.90
8537;DHT22;4306;50.210;10.628;2023-04-02T06:29:37;5.40;99.90
8537;DHT22;4306;50.210;10.628;2023-04-02T06:32:07;5.50;99.90
8537;DHT22;4306;50.210;10.628;2023-04-02T06:34:36;5.50;99.90
8537;DHT22;4306;50.210;10.628;2023-04-02T06:37:14;5.30;99.90
8537;DHT22;4306;50.210;10.628;2023-04-02T06:39:42;5.40;99.90
8537;DHT22;4306;50.210;10.628;2023-04-02T06:42:12;5.10;99.90
8537;DHT22;4306;50.210;10.628;2023-04-02T06:44:39;5.00;99.90
8537;DHT22;4306;50.210;10.628;2023-04-02T06:47:15;4.90;99.90
8537;DHT22;4306;50.210;10.628;2023-04-02T06:49:48;4.90;99.90
8537;DHT22;4306;50.210;10.628;2023-04-02T06:52:22;4.90;99.90
8537;DHT22;4306;50.210;10.628;2023-04-02T06:54:49;4.70;99.90
8537;DHT22;4306;50.210;10.628;2023-04-02T06:57:16;4.80;99.90
8537;DHT22;4306;50.210;10.628;2023-04-02T06:59:43;4.80;99.90
8537;DHT22;4306;50.210;10.628;2023-04-02T07:02:21;5.00;99.90
8537;DHT22;4306;50.210;10.628;2023-04-02T07:04:50;5.00;99.90
8537;DHT22;4306;50.210;10.628;2023-04-02T07:07:18;4.90;99.90
8537;DHT22;4306;50.210;10.628;2023-04-02T07:09:45;5.10;99.90
8537;DHT22;4306;50.210;10.628;2023-04-02T07:12:12;4.90;99.90
8537;DHT22;4306;50.210;10.628;2023-04-02T07:14:39;4.90;99.90
8537;DHT22;4306;50.210;10.628;2023-04-02T07:17:08;4.80;99.90
8537;DHT22;4306;50.210;10.628;2023-04-02T07:19:36;4.70;99.90
8537;DHT22;4306;50.210;10.628;2023-04-02T07:22:02;4.70;99.90
8537;DHT22;4306;50.210;10.628;2023-04-02T07:24:31;4.70;99.90
8537;DHT22;4306;50.210;10.628;2023-04-02T07:26:57;4.70;99.90
8537;DHT22;4306;50.210;10.628;2023-04-02T07:29:24;4.70;99.90
8537;DHT22;4306;50.210;10.628;2023-04-02T07:31:51;4.80;99.90
8537;DHT22;4306;50.210;10.628;2023-04-02T07:34:18;4.70;99.90
8537;DHT22;4306;50.210;10.628;2023-04-02T07:36:45;4.70;99.90
8537;DHT22;4306;50.210;10.628;2023-04-02T07:39:13;4.70;99.90
8537;DHT22;4306;50.210;10.628;2023-04-02T07:41:52;4.60;99.90
8537;DHT22;4306;50.210;10.628;2023-04-02T07:44:19;4.80;99.90
8537;DHT22;4306;50.210;10.628;2023-04-02T07:46:46;4.80;99.90
8537;DHT22;4306;50.210;10.628;2023-04-02T07:49:12;4.90;99.90
8537;DHT22;4306;50.210;10.628;2023-04-02T07:51:39;4.80;99.90
8537;DHT22;4306;50.210;10.628;2023-04-02T07:54:06;4.80;99.90
8537;DHT22;4306;50.210;10.628;2023-04-02T07:56:35;4.80;99.90
8537;DHT22;4306;50.210;10.628;2023-04-02T07:59:04;4.90;99.90
8537;DHT22;4306;50.210;10.628;2023-04-02T08:01:31;5.00;99.90
8537;DHT22;4306;50.210;10.628;2023-04-02T08:04:01;5.20;99.90
8537;DHT22;4306;50.210;10.628;2023-04-02T08:06:28;5.20;99.90
8537;DHT22;4306;50.210;10.628;2023-04-02T08:08:56;5.30;99.90
8537;DHT22;4306;50.210;10.628;2023-04-02T08:11:23;5.20;99.90
8537;DHT22;4306;50.210;10.628;2023-04-02T08:13:50;5.30;99.90
8537;DHT22;4306;50.210;10.628;2023-04-02T08:16:18;5.20;99.90
8537;DHT22;4306;50.210;10.628;2023-04-02T08:18:45;5.30;99.90
8537;DHT22;4306;50.210;10.628;2023-04-02T08:21:13;5.00;99.90
8537;DHT22;4306;50.210;10.628;2023-04-02T08:23:40;5.20;99.90
8537;DHT22;4306;50.210;10.628;2023-04-02T08:26:07;5.10;99.90
8537;DHT22;4306;50.210;10.628;2023-04-02T08:28:34;4.90;99.90
8537;DHT22;4306;50.210;10.628;2023-04-02T08:31:01;5.00;99.90
8537;DHT22;4306;50.210;10.628;2023-04-02T08:33:30;4.80;99.90
8537;DHT22;4306;50.210;10.628;2023-04-02T08:35:57;4.90;99.90
8537;DHT22;4306;50.210;10.628;2023-04-02T08:38:24;5.00;99.90
8537;DHT22;4306;50.210;10.628;2023-04-02T08:40:53;4.90;99.90
8537;DHT22;4306;50.210;10.628;2023-04-02T08:43:40;4.90;99.90
8537;DHT22;4306;50.210;10.628;2023-04-02T08:46:15;5.00;99.90
8537;DHT22;4306;50.210;10.628;2023-04-02T08:48:50;5.00;99.90
8537;DHT22;4306;50.210;10.628;2023-04-02T08:51:22;5.20;99.90
8537;DHT22;4306;50.210;10.628;2023-04-02T08:53:51;5.10;99.90
8537;DHT22;4306;50.210;10.628;2023-04-02T08:56:28;5.30;99.90
8537;DHT22;4306;50.210;10.628;2023-04-02T08:58:59;5.30;99.90
8537;DHT22;4306;50.210;10.628;2023-04-02T09:01:35;5.50;99.90
8537;DHT22;4306;50.210;10.628;2023-04-02T09:04:13;5.30;99.90
8537;DHT22;4306;50.210;10.628;2023-04-02T09:06:41;5.50;99.90
8537;DHT22;4306;50.210;10.628;2023-04-02T09:09:10;5.40;99.90
8537;DHT22;4306;50.210;10.628;2023-04-02T09:11:43;5.50;99.90
8537;DHT22;4306;50.210;10.628;2023-04-02T09:14:17;5.40;99.90
8537;DHT22;4306;50.210;10.628;2023-04-02T09:16:47;5.30;99.90
8537;DHT22;4306;50.210;10.628;2023-04-02T09:19:19;5.20;99.90
8537;DHT22;4306;50.210;10.628;2023-04-02T09:22:03;5.20;99.90
8537;DHT22;4306;50.210;10.628;2023-04-02T09:24:31;5.40;99.90
8537;DHT22;4306;50.210;10.628;2023-04-02T09:26:58;5.30;99.90
8537;DHT22;4306;50.210;10.628;2023-04-02T09:29:39;5.20;99.90
8537;DHT22;4306;50.210;10.628;2023-04-02T09:32:24;5.10;99.90
8537;DHT22;4306;50.210;10.628;2023-04-02T09:35:09;5.30;99.90
8537;DHT22;4306;50.210;10.628;2023-04-02T09:37:37;5.10;99.90
8537;DHT22;4306;50.210;10.628;2023-04-02T09:40:22;5.20;99.90
8537;DHT22;4306;50.210;10.628;2023-04-02T09:43:09;5.10;99.90
8537;DHT22;4306;50.210;10.628;2023-04-02T09:45:37;5.10;99.90
8537;DHT22;4306;50.210;10.628;2023-04-02T09:48:19;5.30;99.90
8537;DHT22;4306;50.210;10.628;2023-04-02T09:50:48;5.30;99.90
8537;DHT22;4306;50.210;10.628;2023-04-02T09:53:29;5.20;99.90
8537;DHT22;4306;50.210;10.628;2023-04-02T09:56:11;5.10;99.90
8537;DHT22;4306;50.210;10.628;2023-04-02T09:58:38;5.20;99.90
8537;DHT22;4306;50.210;10.628;2023-04-02T10:01:27;5.20;99.90
8537;DHT22;4306;50.210;10.628;2023-04-02T10:03:55;5.20;99.90
8537;DHT22;4306;50.210;10.628;2023-04-02T10:06:26;5.30;99.90
8537;DHT22;4306;50.210;10.628;2023-04-02T10:08:53;5.30;99.90
8537;DHT22;4306;50.210;10.628;2023-04-02T10:11:24;5.50;99.90
8537;DHT22;4306;50.210;10.628;2023-04-02T10:13:56;5.60;99.90
8537;DHT22;4306;50.210;10.628;2023-04-02T10:16:25;5.80;99.90
8537;DHT22;4306;50.210;10.628;2023-04-02T10:18:58;5.70;99.90
8537;DHT22;4306;50.210;10.628;2023-04-02T10:21:35;5.70;99.90
8537;DHT22;4306;50.210;10.628;2023-04-02T10:24:10;6.00;99.90
8537;DHT22;4306;50.210;10.628;2023-04-02T10:26:54;6.00;99.90
8537;DHT22;4306;50.210;10.628;2023-04-02T10:29:46;5.90;99.90
8537;DHT22;4306;50.210;10.628;2023-04-02T10:32:19;6.00;99.90
8537;DHT22;4306;50.210;10.628;2023-04-02T10:34:53;6.00;99.90
8537;DHT22;4306;50.210;10.628;2023-04-02T10:37:53;6.10;99.90
8537;DHT22;4306;50.210;10.628;2023-04-02T10:40:27;6.20;99.90
8537;DHT22;4306;50.210;10.628;2023-04-02T10:43:13;6.00;99.90
8537;DHT22;4306;50.210;10.628;2023-04-02T10:45:50;6.40;99.90
8537;DHT22;4306;50.210;10.628;2023-04-02T10:48:24;6.40;99.90
8537;DHT22;4306;50.210;10.628;2023-04-02T10:50:57;6.30;99.90
8537;DHT22;4306;50.210;10.628;2023-04-02T10:53:31;6.30;99.90
8537;DHT22;4306;50.210;10.628;2023-04-02T10:56:02;6.10;99.90
8537;DHT22;4306;50.210;10.628;2023-04-02T10:58:37;6.00;99.90
8537;DHT22;4306;50.210;10.628;2023-04-02T11:01:06;6.20;99.90
8537;DHT22;4306;50.210;10.628;2023-04-02T11:03:38;6.20;99.90
8537;DHT22;4306;50.210;10.628;2023-04-02T11:06:15;5.90;99.90
8537;DHT22;4306;50.210;10.628;2023-04-02T11:08:46;5.90;99.90
8537;DHT22;4306;50.210;10.628;2023-04-02T11:11:16;6.00;99.90
8537;DHT22;4306;50.210;10.628;2023-04-02T11:13:51;6.10;99.90
8537;DHT22;4306;50.210;10.628;2023-04-02T11:16:20;6.00;99.90
8537;DHT22;4306;50.210;10.628;2023-04-02T11:19:21;6.30;99.90
8537;DHT22;4306;50.210;10.628;2023-04-02T11:21:49;6.30;99.90
8537;DHT22;4306;50.210;10.628;2023-04-02T11:24:35;6.20;99.90
8537;DHT22;4306;50.210;10.628;2023-04-02T11:27:11;6.10;99.90
8537;DHT22;4306;50.210;10.628;2023-04-02T11:29:42;6.10;99.90
8537;DHT22;4306;50.210;10.628;2023-04-02T11:32:34;6.30;99.90
8537;DHT22;4306;50.210;10.628;2023-04-02T11:35:26;6.20;99.90
8537;DHT22;4306;50.210;10.628;2023-04-02T11:38:02;6.20;99.90
8537;DHT22;4306;50.210;10.628;2023-04-02T11:40:48;6.30;99.90
8537;DHT22;4306;50.210;10.628;2023-04-02T11:43:50;6.20;99.90
8537;DHT22;4306;50.210;10.628;2023-04-02T11:46:40;6.20;99.90
8537;DHT22;4306;50.210;10.628;2023-04-02T11:52:26;5.70;99.90
8537;DHT22;4306;50.210;10.628;2023-04-02T11:55:02;5.80;99.90
8537;DHT22;4306;50.210;10.628;2023-04-02T11:57:44;5.70;99.90
8537;DHT22;4306;50.210;10.628;2023-04-02T12:03:33;5.90;99.90
8537;DHT22;4306;50.210;10.628;2023-04-02T12:06:11;5.50;99.90
8537;DHT22;4306;50.210;10.628;2023-04-02T12:08:51;5.20;99.90
8537;DHT22;4306;50.210;10.628;2023-04-02T12:11:30;5.10;99.90
8537;DHT22;4306;50.210;10.628;2023-04-02T12:13:59;5.00;99.90
8537;DHT22;4306;50.210;10.628;2023-04-02T12:16:26;4.90;99.90
8537;DHT22;4306;50.210;10.628;2023-04-02T12:18:58;4.70;99.90
8537;DHT22;4306;50.210;10.628;2023-04-02T12:21:28;4.70;99.90
8537;DHT22;4306;50.210;10.628;2023-04-02T12:23:57;4.80;99.90
8537;DHT22;4306;50.210;10.628;2023-04-02T12:26:32;4.90;99.90
8537;DHT22;4306;50.210;10.628;2023-04-02T12:29:30;4.80;99.90
8537;DHT22;4306;50.210;10.628;2023-04-02T12:31:58;4.90;99.90
8537;DHT22;4306;50.210;10.628;2023-04-02T12:34:27;4.90;99.90
8537;DHT22;4306;50.210;10.628;2023-04-02T12:36:55;4.80;99.90
8537;DHT22;4306;50.210;10.628;2023-04-02T12:39:24;4.70;99.90
8537;DHT22;4306;50.210;10.628;2023-04-02T12:41:51;4.60;99.90
8537;DHT22;4306;50.210;10.628;2023-04-02T12:44:20;4.70;99.90
8537;DHT22;4306;50.210;10.628;2023-04-02T12:46:49;4.60;99.90
8537;DHT22;4306;50.210;10.628;2023-04-02T12:49:33;4.80;99.90
8537;DHT22;4306;50.210;10.628;2023-04-02T12:52:03;4.80;99.90
8537;DHT22;4306;50.210;10.628;2023-04-02T12:54:35;4.50;99.90
8537;DHT22;4306;50.210;10.628;2023-04-02T12:57:31;4.30;99.90
8537;DHT22;4306;50.210;10.628;2023-04-02T12:59:59;4.50;99.90
8537;DHT22;4306;50.210;10.628;2023-04-02T13:02:41;4.30;99.90
8537;DHT22;4306;50.210;10.628;2023-04-02T13:05:09;4.40;99.90
8537;DHT22;4306;50.210;10.628;2023-04-02T13:07:37;4.30;99.90
8537;DHT22;4306;50.210;10.628;2023-04-02T13:10:05;4.10;99.90
8537;DHT22;4306;50.210;10.628;2023-04-02T13:12:47;4.40;99.90
8537;DHT22;4306;50.210;10.628;2023-04-02T13:15:20;4.60;99.90
8537;DHT22;4306;50.210;10.628;2023-04-02T13:18:03;4.40;99.90
8537;DHT22;4306;50.210;10.628;2023-04-02T13:20:32;4.40;99.90
8537;DHT22;4306;50.210;10.628;2023-04-02T13:23:00;4.40;99.90
8537;DHT22;4306;50.210;10.628;2023-04-02T13:25:29;4.30;99.90
8537;DHT22;4306;50.210;10.628;2023-04-02T13:27:57;4.30;99.90
8537;DHT22;4306;50.210;10.628;2023-04-02T13:30:26;4.30;99.90
8537;DHT22;4306;50.210;10.628;2023-04-02T13:32:54;4.40;99.90
8537;DHT22;4306;50.210;10.628;2023-04-02T13:35:21;4.60;99.90
8537;DHT22;4306;50.210;10.628;2023-04-02T13:37:48;4.40;99.90
8537;DHT22;4306;50.210;10.628;2023-04-02T13:40:16;4.40;99.90
8537;DHT22;4306;50.210;10.628;2023-04-02T13:42:44;4.20;99.90
8537;DHT22;4306;50.210;10.628;2023-04-02T13:45:21;4.50;99.90
8537;DHT22;4306;50.210;10.628;2023-04-02T13:47:49;4.30;99.90
8537;DHT22;4306;50.210;10.628;2023-04-02T13:50:19;4.30;99.90
8537;DHT22;4306;50.210;10.628;2023-04-02T13:52:47;4.10;99.90
8537;DHT22;4306;50.210;10.628;2023-04-02T13:55:15;4.10;99.90
8537;DHT22;4306;50.210;10.628;2023-04-02T13:57:43;4.10;99.90
8537;DHT22;4306;50.210;10.628;2023-04-02T14:00:11;4.40;99.90
8537;DHT22;4306;50.210;10.628;2023-04-02T14:02:40;4.30;99.90
8537;DHT22;4306;50.210;10.628;2023-04-02T14:05:19;4.30;99.90
8537;DHT22;4306;50.210;10.628;2023-04-02T14:07:56;4.30;99.90
8537;DHT22;4306;50.210;10.628;2023-04-02T14:10:35;4.40;99.90
8537;DHT22;4306;50.210;10.628;2023-04-02T14:13:23;4.20;99.90
8537;DHT22;4306;50.210;10.628;2023-04-02T14:16:06;4.10;99.90
8537;DHT22;4306;50.210;10.628;2023-04-02T14:18:53;4.10;99.90
8537;DHT22;4306;50.210;10.628;2023-04-02T14:21:31;4.30;99.90
8537;DHT22;4306;50.210;10.628;2023-04-02T14:24:09;4.30;99.90
8537;DHT22;4306;50.210;10.628;2023-04-02T14:26:45;4.30;99.90
8537;DHT22;4306;50.210;10.628;2023-04-02T14:29:20;4.50;99.90
8537;DHT22;4306;50.210;10.628;2023-04-02T14:31:54;4.50;99.90
8537;DHT22;4306;50.210;10.628;2023-04-02T14:34:30;4.70;99.90
8537;DHT22;4306;50.210;10.628;2023-04-02T14:37:05;4.60;99.90
8537;DHT22;4306;50.210;10.628;2023-04-02T14:39:41;4.80;99.90
8537;DHT22;4306;50.210;10.628;2023-04-02T14:42:16;4.70;99.90
8537;DHT22;4306;50.210;10.628;2023-04-02T14:44:48;4.70;99.90
8537;DHT22;4306;50.210;10.628;2023-04-02T14:47:21;4.70;99.90
8537;DHT22;4306;50.210;10.628;2023-04-02T14:49:51;4.50;99.90
8537;DHT22;4306;50.210;10.628;2023-04-02T14:52:22;4.50;99.90
8537;DHT22;4306;50.210;10.628;2023-04-02T14:54:53;4.60;99.90
8537;DHT22;4306;50.210;10.628;2023-04-02T14:57:22;4.50;99.90
8537;DHT22;4306;50.210;10.628;2023-04-02T14:59:56;4.60;99.90
8537;DHT22;4306;50.210;10.628;2023-04-02T15:02:33;4.40;99.90
8537;DHT22;4306;50.210;10.628;2023-04-02T15:05:04;4.50;99.90
8537;DHT22;4306;50.210;10.628;2023-04-02T15:07:38;4.20;99.90
8537;DHT22;4306;50.210;10.628;2023-04-02T15:10:16;4.50;99.90
8537;DHT22;4306;50.210;10.628;2023-04-02T15:12:45;4.30;99.90
8537;DHT22;4306;50.210;10.628;2023-04-02T15:15:19;4.40;99.90
8537;DHT22;4306;50.210;10.628;2023-04-02T15:17:48;4.50;99.90
8537;DHT22;4306;50.210;10.628;2023-04-02T15:20:17;4.30;99.90
8537;DHT22;4306;50.210;10.628;2023-04-02T15:22:54;4.30;99.90
8537;DHT22;4306;50.210;10.628;2023-04-02T15:25:28;4.30;99.90
8537;DHT22;4306;50.210;10.628;2023-04-02T15:28:07;4.30;99.90
8537;DHT22;4306;50.210;10.628;2023-04-02T15:30:37;4.20;99.90
8537;DHT22;4306;50.210;10.628;2023-04-02T15:33:39;4.30;99.90
8537;DHT22;4306;50.210;10.628;2023-04-02T15:36:24;4.30;99.90
8537;DHT22;4306;50.210;10.628;2023-04-02T15:39:02;4.20;99.90
8537;DHT22;4306;50.210;10.628;2023-04-02T15:41:40;4.00;99.90
8537;DHT22;4306;50.210;10.628;2023-04-02T15:44:14;4.00;99.90
8537;DHT22;4306;50.210;10.628;2023-04-02T15:46:47;4.10;99.90
8537;DHT22;4306;50.210;10.628;2023-04-02T15:49:36;4.20;99.90
8537;DHT22;4306;50.210;10.628;2023-04-02T15:52:09;4.20;99.90
8537;DHT22;4306;50.210;10.628;2023-04-02T15:54:57;4.10;99.90
8537;DHT22;4306;50.210;10.628;2023-04-02T15:57:38;4.20;99.90
8537;DHT22;4306;50.210;10.628;2023-04-02T16:00:19;4.00;99.90
8537;DHT22;4306;50.210;10.628;2023-04-02T16:06:25;4.00;99.90
8537;DHT22;4306;50.210;10.628;2023-04-02T16:09:02;3.80;99.90
8537;DHT22;4306;50.210;10.628;2023-04-02T16:11:33;3.80;99.90
8537;DHT22;4306;50.210;10.628;2023-04-02T16:14:14;3.80;99.90
8537;DHT22;4306;50.210;10.628;2023-04-02T16:16:43;3.80;99.90
8537;DHT22;4306;50.210;10.628;2023-04-02T16:19:15;3.70;99.90
8537;DHT22;4306;50.210;10.628;2023-04-02T16:21:48;3.80;99.90
8537;DHT22;4306;50.210;10.628;2023-04-02T16:24:16;3.70;99.90
8537;DHT22;4306;50.210;10.628;2023-04-02T16:26:50;3.60;99.90
8537;DHT22;4306;50.210;10.628;2023-04-02T16:29:45;3.80;99.90
8537;DHT22;4306;50.210;10.628;2023-04-02T16:32:28;3.70;99.90
8537;DHT22;4306;50.210;10.628;2023-04-02T16:35:06;3.80;99.90
8537;DHT22;4306;50.210;10.628;2023-04-02T16:37:41;3.80;99.90
8537;DHT22;4306;50.210;10.628;2023-04-02T16:40:22;3.70;99.90
8537;DHT22;4306;50.210;10.628;2023-04-02T16:42:59;3.70;99.90
8537;DHT22;4306;50.210;10.628;2023-04-02T16:45:36;3.60;99.90
8537;DHT22;4306;50.210;10.628;2023-04-02T16:48:10;3.70;99.90
8537;DHT22;4306;50.210;10.628;2023-04-02T16:50:45;3.70;99.90
8537;DHT22;4306;50.210;10.628;2023-04-02T16:53:21;3.60;99.90
8537;DHT22;4306;50.210;10.628;2023-04-02T16:56:05;3.50;99.90
8537;DHT22;4306;50.210;10.628;2023-04-02T16:58:41;3.60;99.90